De Ruyter, New York
Current Conditions -  °F | °C
As of 11:15 AM on Monday 26 Jan 2015 (Local Time) from KN03 Reporting Station
Light Snow Light Snow  
Wind Chill:   Ceiling: 1000
Heat Index: 14°   Visibility: 1.2mi
Dew Point: 12°   Wind: 8mph
Humidity: 93%   Direction: 70°ENE
Pressure: 29.93"   Gusts: NA
Location:  42.73°N, 75.91°W
Report Text: KN03 261615Z AUTO 07007KT 1 1/4SM -SN OVC010 M10/M11 A2993 RMK AO2
Loading
Personal Weather Stations






























Interactive Weather Map New forecast layout! Learn more

10-Day Weather Forecast

Advertisements
Track Severe Weather on mobile